createdAt,value
2022-08-25T00:04:53.929Z,19.29
2022-08-25T00:24:47.416Z,19.28
2022-08-25T00:44:47.394Z,19.28
2022-08-25T01:04:47.723Z,19.28
2022-08-25T01:24:47.334Z,19.26
2022-08-25T01:44:47.308Z,19.23
2022-08-25T02:04:47.019Z,19.2
2022-08-25T02:24:46.996Z,19.18
2022-08-25T02:44:46.966Z,19.18
2022-08-25T03:04:47.303Z,19.17
2022-08-25T03:24:47.181Z,19.12
2022-08-25T03:44:47.183Z,19.09
2022-08-25T04:04:47.118Z,19.08
2022-08-25T04:24:47.101Z,19.07
2022-08-25T04:44:47.073Z,19.04
2022-08-25T05:04:47.062Z,18.99
2022-08-25T05:24:47.011Z,18.98
2022-08-25T05:44:47.003Z,18.97
2022-08-25T06:04:46.977Z,18.94
2022-08-25T06:24:46.935Z,18.89
2022-08-25T06:44:46.883Z,18.88
2022-08-25T07:04:46.877Z,18.87
2022-08-25T07:24:46.833Z,18.84
2022-08-25T08:04:46.777Z,18.77
2022-08-25T08:44:46.709Z,18.75
2022-08-25T09:04:46.681Z,18.72
2022-08-25T09:24:46.616Z,18.69
2022-08-25T09:44:46.598Z,18.67
2022-08-25T10:04:46.692Z,18.67
2022-08-25T10:24:46.532Z,18.67
2022-08-25T10:44:46.501Z,18.65
2022-08-25T11:04:47.137Z,18.64
2022-08-25T12:04:46.452Z,18.61
2022-08-25T12:44:46.393Z,18.63
2022-08-25T13:04:46.381Z,18.66
2022-08-25T13:24:47.388Z,18.67
2022-08-25T13:44:51.870Z,18.67
2022-08-25T14:04:51.032Z,18.71
2022-08-25T14:44:46.296Z,18.77
2022-08-25T15:44:52.965Z,18.9
2022-08-25T16:04:46.274Z,18.97
2022-08-25T16:24:46.249Z,18.99
2022-08-25T16:44:46.243Z,19.07
2022-08-25T17:04:46.216Z,19.1
2022-08-25T17:24:46.179Z,19.18
2022-08-25T17:44:46.152Z,19.21
2022-08-25T18:04:46.117Z,19.28
2022-08-25T18:24:46.142Z,19.3
2022-08-25T18:44:46.730Z,19.37
2022-08-25T19:04:46.058Z,19.39
2022-08-25T19:24:45.986Z,19.44
2022-08-25T19:44:45.977Z,19.48
2022-08-25T20:04:49.277Z,19.49
2022-08-25T20:44:45.853Z,19.54
2022-08-25T21:04:48.873Z,19.57
2022-08-25T21:24:45.802Z,19.58
2022-08-25T21:44:45.761Z,19.58
2022-08-25T22:44:45.667Z,19.58
2022-08-25T23:04:45.785Z,19.58
2022-08-25T23:24:45.610Z,19.58
